»·PEaware :: N46420 KLAX-KSNA

N46420 :: KLAX-KSNA

FLIGHT INFORMATION

Flight Status: Arrived
Operator: Privately registered:
United States
More flights under this callsign
Pilot: Nickolaus B. (17683)
Aircraft: CESSNA 172 SKYHAWK
(C172)
More flights by this aircraft type
Origin: KLAX Los Angeles Intl
United States
Destination: KSNA John Wayne-Orange Co
United States
More flights between these airports :: More routes between these airports
Route: SLI8 SLI
File this flight plan on PilotEdge
Remarks: I-6 Rating
Altitude:
(Current/Filed)
4,000ft
Speed:
(Current/Filed)
130kts
Departed: 11-Apr-18 05:53 PM
Arrived: 11-Apr-18 06:30 PM
Distance/Time
Traveled:
31nm/0:37
Distance/Time
To Go:
Arrived

Flight Plot

Page will automatically refresh every two minutes.

Flight plan parsing failed; only flown route is shown


Map Options




Map Legend


Flown Route
Filed Route
Departure Airport
Arrival Airport
Navaid (VOR, NDB)
Fix

Horizontal Profiles

Position Reports

Time Latitude Longitude Heading Altitude Ground
Speed
11-Apr-18 17:32 33.945623 -118.416917 263 115ft 0kts
11-Apr-18 17:33 33.945623 -118.416917 263 115ft 0kts
11-Apr-18 17:34 33.945623 -118.416917 263 115ft 0kts
11-Apr-18 17:35 33.945623 -118.416917 263 115ft 0kts
11-Apr-18 17:36 33.945623 -118.416917 263 115ft 0kts
11-Apr-18 17:37 33.945623 -118.416917 263 115ft 0kts
11-Apr-18 17:38 33.945623 -118.416917 263 115ft 0kts
11-Apr-18 17:39 33.945623 -118.416917 263 115ft 0kts
11-Apr-18 17:40 33.945623 -118.416917 263 115ft 0kts
11-Apr-18 17:41 33.945623 -118.416917 263 115ft 0kts
11-Apr-18 17:42 33.945623 -118.416917 263 115ft 0kts
11-Apr-18 17:43 33.945622 -118.416925 260 115ft 0kts
11-Apr-18 17:44 33.946392 -118.418163 352 115ft 8kts
11-Apr-18 17:45 33.947611 -118.415047 77 117ft 15kts
11-Apr-18 17:46 33.948305 -118.409330 84 119ft 17kts
11-Apr-18 17:47 33.948892 -118.403841 73 115ft 15kts
11-Apr-18 17:48 33.949214 -118.403165 50 113ft 0kts
11-Apr-18 17:49 33.949214 -118.403165 49 113ft 0kts
11-Apr-18 17:50 33.949214 -118.403165 49 113ft 0kts
11-Apr-18 17:51 33.949257 -118.403106 47 113ft 5kts
11-Apr-18 17:52 33.949866 -118.404703 262 115ft 42kts
11-Apr-18 17:53 33.947891 -118.425898 261 1042ft 64kts
11-Apr-18 17:54 33.946262 -118.446741 258 2032ft 62kts
11-Apr-18 17:55 33.931674 -118.450928 189 3018ft 57kts
11-Apr-18 17:56 33.913209 -118.450018 192 3689ft 82kts
11-Apr-18 17:57 33.890283 -118.435005 145 4007ft 127kts
11-Apr-18 17:58 33.863882 -118.405380 145 3999ft 136kts
11-Apr-18 17:59 33.835911 -118.374505 146 4001ft 138kts
11-Apr-18 18:00 33.807729 -118.343219 147 3997ft 139kts
11-Apr-18 18:01 33.784273 -118.307246 91 3996ft 153kts
11-Apr-18 18:02 33.785953 -118.256805 95 3994ft 150kts
11-Apr-18 18:03 33.785476 -118.207667 95 3993ft 147kts
11-Apr-18 18:04 33.784905 -118.159407 96 3991ft 143kts
11-Apr-18 18:05 33.784343 -118.112576 96 3989ft 139kts
11-Apr-18 18:06 33.783792 -118.068215 96 3988ft 136kts
11-Apr-18 18:07 33.797564 -118.025999 54 3993ft 142kts
11-Apr-18 18:08 33.815371 -117.985410 69 3976ft 140kts
11-Apr-18 18:09 33.832735 -117.945015 61 3980ft 143kts
11-Apr-18 18:10 33.853823 -117.905239 50 3981ft 144kts
11-Apr-18 18:11 33.873474 -117.864651 71 3978ft 141kts
11-Apr-18 18:12 33.887208 -117.820886 72 3975ft 140kts
11-Apr-18 18:13 33.900921 -117.776834 71 3969ft 142kts
11-Apr-18 18:14 33.914746 -117.732326 71 3964ft 144kts
11-Apr-18 18:15 33.938808 -117.696519 24 3963ft 144kts
11-Apr-18 18:16 33.974516 -117.683493 321 3933ft 130kts
11-Apr-18 18:17 33.962791 -117.704034 166 3461ft 127kts
11-Apr-18 18:18 33.933167 -117.705176 209 3472ft 101kts
11-Apr-18 18:19 33.909293 -117.722070 208 3434ft 104kts
11-Apr-18 18:20 33.883405 -117.737483 208 3319ft 109kts
11-Apr-18 18:21 33.856269 -117.753719 208 3344ft 109kts
11-Apr-18 18:22 33.829258 -117.770563 209 3354ft 116kts
11-Apr-18 18:23 33.801501 -117.788179 210 3206ft 117kts
11-Apr-18 18:24 33.776157 -117.804822 212 2559ft 102kts
11-Apr-18 18:25 33.750908 -117.821188 209 1758ft 106kts
11-Apr-18 18:26 33.725314 -117.837413 210 969ft 104kts
11-Apr-18 18:27 33.700842 -117.852858 211 413ft 90kts
11-Apr-18 18:28 33.684272 -117.863281 212 167ft 55kts
11-Apr-18 18:29 33.675801 -117.869216 286 60ft 9kts
11-Apr-18 18:30 33.676148 -117.871034 211 60ft 0kts
11-Apr-18 18:31 33.676148 -117.871034 211 60ft 0kts
11-Apr-18 18:32 33.676148 -117.871034 211 60ft 0kts
11-Apr-18 18:33 33.676148 -117.871034 211 60ft 0kts
11-Apr-18 18:34 33.676148 -117.871034 211 60ft 0kts
11-Apr-18 18:35 33.676148 -117.871034 211 60ft 0kts
11-Apr-18 18:36 33.676148 -117.871034 211 60ft 0kts
11-Apr-18 18:37 33.676148 -117.871034 211 60ft 0kts
11-Apr-18 18:38 33.676148 -117.871034 211 60ft 0kts
11-Apr-18 18:39 33.676148 -117.871034 211 60ft 0kts
11-Apr-18 18:40 33.676148 -117.871034 211 60ft 0kts
11-Apr-18 18:41 33.676148 -117.871034 211 60ft 0kts
11-Apr-18 18:42 33.676148 -117.871034 211 60ft 0kts
11-Apr-18 18:43 33.676148 -117.871034 211 60ft 0kts

Navigation Log

Ident Type
Flight plan parsing failed, navigation log unavailable